Terminal Aerodrome Forecast
Issued by NWS Duluth, MN

Home | Current Version | Previous Version | Text Only | Print | Product List | Glossary On
Versions: 1 2 3 4 5 6 7 8 9 10 11 12 13 14 15 16 17 18 19 20 21 22 23 24 25 26 27 28 29
909
FTUS43 KDLH 151743 CCA
TAFDLH
TAF COR
KDLH 151743Z 1518/1618 35014KT 1SM -SN BR BKN023 OVC035
      TEMPO 1518/1522 3SM -SN BKN015
     FM152200 36013KT 3SM -SN BR OVC015
     FM160600 36012KT P6SM SCT025 SCT040
     FM161400 33008KT P6SM SCT050=

USA.gov is the U.S. government's official web portal to all federal, state and local government web resources and services.